sensor_id;sensor_type;location;lat;lon;timestamp;P1;durP1;ratioP1;P2;durP2;ratioP2
10894;SDS011;5500;49.886;8.074;2023-07-30T00:01:43;1.83;;;1.40;;
10894;SDS011;5500;49.886;8.074;2023-07-30T00:04:12;1.70;;;1.37;;
10894;SDS011;5500;49.886;8.074;2023-07-30T00:06:39;1.50;;;1.40;;
10894;SDS011;5500;49.886;8.074;2023-07-30T00:09:07;1.90;;;1.57;;
10894;SDS011;5500;49.886;8.074;2023-07-30T00:11:35;1.40;;;1.30;;
10894;SDS011;5500;49.886;8.074;2023-07-30T00:14:03;1.33;;;1.23;;
10894;SDS011;5500;49.886;8.074;2023-07-30T00:16:31;1.43;;;1.33;;
10894;SDS011;5500;49.886;8.074;2023-07-30T00:18:58;1.43;;;1.33;;
10894;SDS011;5500;49.886;8.074;2023-07-30T00:21:27;2.37;;;1.30;;
10894;SDS011;5500;49.886;8.074;2023-07-30T00:23:55;1.50;;;1.40;;
10894;SDS011;5500;49.886;8.074;2023-07-30T00:26:23;1.60;;;1.50;;
10894;SDS011;5500;49.886;8.074;2023-07-30T00:28:52;1.57;;;1.30;;
10894;SDS011;5500;49.886;8.074;2023-07-30T00:31:20;1.53;;;1.43;;
10894;SDS011;5500;49.886;8.074;2023-07-30T00:33:48;2.43;;;1.47;;
10894;SDS011;5500;49.886;8.074;2023-07-30T00:36:15;1.80;;;1.27;;
10894;SDS011;5500;49.886;8.074;2023-07-30T00:38:44;1.17;;;1.13;;
10894;SDS011;5500;49.886;8.074;2023-07-30T00:41:12;1.47;;;1.37;;
10894;SDS011;5500;49.886;8.074;2023-07-30T00:43:40;1.37;;;1.27;;
10894;SDS011;5500;49.886;8.074;2023-07-30T00:46:07;1.50;;;1.40;;
10894;SDS011;5500;49.886;8.074;2023-07-30T00:48:35;1.47;;;1.37;;
10894;SDS011;5500;49.886;8.074;2023-07-30T00:51:03;1.67;;;1.30;;
10894;SDS011;5500;49.886;8.074;2023-07-30T00:53:32;1.83;;;1.30;;
10894;SDS011;5500;49.886;8.074;2023-07-30T00:56:01;1.20;;;1.10;;
10894;SDS011;5500;49.886;8.074;2023-07-30T00:58:29;1.30;;;1.17;;
10894;SDS011;5500;49.886;8.074;2023-07-30T01:00:57;1.20;;;1.10;;
10894;SDS011;5500;49.886;8.074;2023-07-30T01:03:25;1.90;;;1.30;;
10894;SDS011;5500;49.886;8.074;2023-07-30T01:05:52;1.40;;;1.30;;
10894;SDS011;5500;49.886;8.074;2023-07-30T01:08:20;1.30;;;1.20;;
10894;SDS011;5500;49.886;8.074;2023-07-30T01:10:48;1.40;;;1.30;;
10894;SDS011;5500;49.886;8.074;2023-07-30T01:13:18;2.03;;;1.50;;
10894;SDS011;5500;49.886;8.074;2023-07-30T01:15:46;1.43;;;1.30;;
10894;SDS011;5500;49.886;8.074;2023-07-30T01:18:14;1.93;;;1.50;;
10894;SDS011;5500;49.886;8.074;2023-07-30T01:20:42;3.20;;;1.47;;
10894;SDS011;5500;49.886;8.074;2023-07-30T01:23:11;1.47;;;1.37;;
10894;SDS011;5500;49.886;8.074;2023-07-30T01:25:38;2.70;;;1.30;;
10894;SDS011;5500;49.886;8.074;2023-07-30T01:28:06;3.77;;;1.50;;
10894;SDS011;5500;49.886;8.074;2023-07-30T01:30:37;1.53;;;1.40;;
10894;SDS011;5500;49.886;8.074;2023-07-30T01:33:09;1.50;;;1.40;;
10894;SDS011;5500;49.886;8.074;2023-07-30T01:35:38;1.40;;;1.30;;
10894;SDS011;5500;49.886;8.074;2023-07-30T01:38:06;1.40;;;1.30;;
10894;SDS011;5500;49.886;8.074;2023-07-30T01:40:35;1.73;;;1.30;;
10894;SDS011;5500;49.886;8.074;2023-07-30T01:43:03;1.40;;;1.20;;
10894;SDS011;5500;49.886;8.074;2023-07-30T01:45:31;4.10;;;1.60;;
10894;SDS011;5500;49.886;8.074;2023-07-30T01:48:00;1.70;;;1.40;;
10894;SDS011;5500;49.886;8.074;2023-07-30T01:50:28;1.63;;;1.53;;
10894;SDS011;5500;49.886;8.074;2023-07-30T01:52:56;2.47;;;1.50;;
10894;SDS011;5500;49.886;8.074;2023-07-30T01:55:23;1.60;;;1.50;;
10894;SDS011;5500;49.886;8.074;2023-07-30T01:57:52;1.90;;;1.30;;
10894;SDS011;5500;49.886;8.074;2023-07-30T02:00:20;1.63;;;1.53;;
10894;SDS011;5500;49.886;8.074;2023-07-30T02:02:48;1.80;;;1.40;;
10894;SDS011;5500;49.886;8.074;2023-07-30T02:05:16;3.77;;;1.47;;
10894;SDS011;5500;49.886;8.074;2023-07-30T02:07:43;2.03;;;1.50;;
10894;SDS011;5500;49.886;8.074;2023-07-30T02:10:11;1.43;;;1.33;;
10894;SDS011;5500;49.886;8.074;2023-07-30T02:12:39;1.50;;;1.40;;
10894;SDS011;5500;49.886;8.074;2023-07-30T02:15:08;1.40;;;1.30;;
10894;SDS011;5500;49.886;8.074;2023-07-30T02:17:36;1.60;;;1.50;;
10894;SDS011;5500;49.886;8.074;2023-07-30T02:20:05;1.50;;;1.40;;
10894;SDS011;5500;49.886;8.074;2023-07-30T02:22:33;3.63;;;1.47;;
10894;SDS011;5500;49.886;8.074;2023-07-30T02:25:01;1.47;;;1.37;;
10894;SDS011;5500;49.886;8.074;2023-07-30T02:27:29;1.50;;;1.40;;
10894;SDS011;5500;49.886;8.074;2023-07-30T02:29:57;3.87;;;1.83;;
10894;SDS011;5500;49.886;8.074;2023-07-30T02:32:26;2.43;;;1.40;;
10894;SDS011;5500;49.886;8.074;2023-07-30T02:34:53;1.63;;;1.30;;
10894;SDS011;5500;49.886;8.074;2023-07-30T02:37:21;2.13;;;1.57;;
10894;SDS011;5500;49.886;8.074;2023-07-30T02:39:49;1.60;;;1.50;;
10894;SDS011;5500;49.886;8.074;2023-07-30T02:42:16;3.53;;;1.50;;
10894;SDS011;5500;49.886;8.074;2023-07-30T02:44:44;1.83;;;1.60;;
10894;SDS011;5500;49.886;8.074;2023-07-30T02:47:12;2.47;;;1.23;;
10894;SDS011;5500;49.886;8.074;2023-07-30T02:49:41;1.73;;;1.50;;
10894;SDS011;5500;49.886;8.074;2023-07-30T02:52:09;1.60;;;1.50;;
10894;SDS011;5500;49.886;8.074;2023-07-30T02:54:36;4.80;;;1.50;;
10894;SDS011;5500;49.886;8.074;2023-07-30T02:57:04;2.67;;;1.60;;
10894;SDS011;5500;49.886;8.074;2023-07-30T02:59:32;1.80;;;1.63;;
10894;SDS011;5500;49.886;8.074;2023-07-30T03:02:02;2.07;;;1.50;;
10894;SDS011;5500;49.886;8.074;2023-07-30T03:04:31;1.57;;;1.47;;
10894;SDS011;5500;49.886;8.074;2023-07-30T03:07:00;1.90;;;1.53;;
10894;SDS011;5500;49.886;8.074;2023-07-30T03:09:28;2.73;;;1.43;;
10894;SDS011;5500;49.886;8.074;2023-07-30T03:11:56;4.93;;;2.00;;
10894;SDS011;5500;49.886;8.074;2023-07-30T03:14:23;2.07;;;1.60;;
10894;SDS011;5500;49.886;8.074;2023-07-30T03:16:51;1.70;;;1.57;;
10894;SDS011;5500;49.886;8.074;2023-07-30T03:19:19;1.63;;;1.53;;
10894;SDS011;5500;49.886;8.074;2023-07-30T03:21:46;1.57;;;1.40;;
10894;SDS011;5500;49.886;8.074;2023-07-30T03:24:16;1.73;;;1.30;;
10894;SDS011;5500;49.886;8.074;2023-07-30T03:26:43;2.47;;;1.47;;
10894;SDS011;5500;49.886;8.074;2023-07-30T03:29:11;5.37;;;2.07;;
10894;SDS011;5500;49.886;8.074;2023-07-30T03:31:39;2.80;;;1.50;;
10894;SDS011;5500;49.886;8.074;2023-07-30T03:34:06;1.77;;;1.63;;
10894;SDS011;5500;49.886;8.074;2023-07-30T03:36:34;2.07;;;1.67;;
10894;SDS011;5500;49.886;8.074;2023-07-30T03:39:02;1.40;;;1.30;;
10894;SDS011;5500;49.886;8.074;2023-07-30T03:41:31;1.60;;;1.47;;
10894;SDS011;5500;49.886;8.074;2023-07-30T03:43:58;1.60;;;1.50;;
10894;SDS011;5500;49.886;8.074;2023-07-30T03:46:26;1.80;;;1.50;;
10894;SDS011;5500;49.886;8.074;2023-07-30T03:48:54;1.60;;;1.50;;
10894;SDS011;5500;49.886;8.074;2023-07-30T03:51:21;3.70;;;1.60;;
10894;SDS011;5500;49.886;8.074;2023-07-30T03:53:49;1.40;;;1.30;;
10894;SDS011;5500;49.886;8.074;2023-07-30T03:56:17;1.83;;;1.73;;
10894;SDS011;5500;49.886;8.074;2023-07-30T03:58:46;2.30;;;1.47;;
10894;SDS011;5500;49.886;8.074;2023-07-30T04:01:13;1.67;;;1.57;;
10894;SDS011;5500;49.886;8.074;2023-07-30T04:03:41;3.27;;;1.50;;
10894;SDS011;5500;49.886;8.074;2023-07-30T04:06:09;1.60;;;1.50;;
10894;SDS011;5500;49.886;8.074;2023-07-30T04:08:37;2.10;;;1.50;;
10894;SDS011;5500;49.886;8.074;2023-07-30T04:11:05;2.10;;;1.50;;
10894;SDS011;5500;49.886;8.074;2023-07-30T04:13:32;2.33;;;1.70;;
10894;SDS011;5500;49.886;8.074;2023-07-30T04:16:03;1.60;;;1.47;;
10894;SDS011;5500;49.886;8.074;2023-07-30T04:18:31;1.60;;;1.50;;
10894;SDS011;5500;49.886;8.074;2023-07-30T04:21:00;1.83;;;1.73;;
10894;SDS011;5500;49.886;8.074;2023-07-30T04:23:28;1.50;;;1.40;;
10894;SDS011;5500;49.886;8.074;2023-07-30T04:25:55;1.70;;;1.60;;
10894;SDS011;5500;49.886;8.074;2023-07-30T04:28:23;3.27;;;1.93;;
10894;SDS011;5500;49.886;8.074;2023-07-30T04:30:51;1.83;;;1.73;;
10894;SDS011;5500;49.886;8.074;2023-07-30T04:33:20;2.60;;;1.50;;
10894;SDS011;5500;49.886;8.074;2023-07-30T04:35:47;1.77;;;1.50;;
10894;SDS011;5500;49.886;8.074;2023-07-30T04:38:15;3.70;;;1.77;;
10894;SDS011;5500;49.886;8.074;2023-07-30T04:40:43;2.77;;;1.80;;
10894;SDS011;5500;49.886;8.074;2023-07-30T04:43:10;2.87;;;1.60;;
10894;SDS011;5500;49.886;8.074;2023-07-30T04:45:38;1.70;;;1.60;;
10894;SDS011;5500;49.886;8.074;2023-07-30T04:48:06;1.70;;;1.60;;
10894;SDS011;5500;49.886;8.074;2023-07-30T04:50:35;2.27;;;1.77;;
10894;SDS011;5500;49.886;8.074;2023-07-30T04:53:04;2.40;;;1.50;;
10894;SDS011;5500;49.886;8.074;2023-07-30T04:55:31;4.30;;;1.73;;
10894;SDS011;5500;49.886;8.074;2023-07-30T04:58:00;2.40;;;1.60;;
10894;SDS011;5500;49.886;8.074;2023-07-30T05:00:28;1.80;;;1.70;;
10894;SDS011;5500;49.886;8.074;2023-07-30T05:02:56;4.13;;;1.57;;
10894;SDS011;5500;49.886;8.074;2023-07-30T05:05:24;2.40;;;1.80;;
10894;SDS011;5500;49.886;8.074;2023-07-30T05:07:53;1.87;;;1.67;;
10894;SDS011;5500;49.886;8.074;2023-07-30T05:10:20;1.90;;;1.80;;
10894;SDS011;5500;49.886;8.074;2023-07-30T05:12:48;4.67;;;1.87;;
10894;SDS011;5500;49.886;8.074;2023-07-30T05:15:16;1.40;;;1.30;;
10894;SDS011;5500;49.886;8.074;2023-07-30T05:17:43;3.77;;;1.67;;
10894;SDS011;5500;49.886;8.074;2023-07-30T05:20:11;1.73;;;1.60;;
10894;SDS011;5500;49.886;8.074;2023-07-30T05:22:39;1.50;;;1.40;;
10894;SDS011;5500;49.886;8.074;2023-07-30T05:25:08;2.47;;;1.70;;
10894;SDS011;5500;49.886;8.074;2023-07-30T05:27:36;2.37;;;1.77;;
10894;SDS011;5500;49.886;8.074;2023-07-30T05:30:04;3.40;;;1.80;;
10894;SDS011;5500;49.886;8.074;2023-07-30T05:32:33;1.70;;;1.60;;
10894;SDS011;5500;49.886;8.074;2023-07-30T05:35:00;3.23;;;1.57;;
10894;SDS011;5500;49.886;8.074;2023-07-30T05:37:28;2.63;;;1.57;;
10894;SDS011;5500;49.886;8.074;2023-07-30T05:39:55;2.77;;;1.60;;
10894;SDS011;5500;49.886;8.074;2023-07-30T05:42:24;4.27;;;1.90;;
10894;SDS011;5500;49.886;8.074;2023-07-30T05:44:51;1.70;;;1.60;;
10894;SDS011;5500;49.886;8.074;2023-07-30T05:47:19;1.93;;;1.70;;
10894;SDS011;5500;49.886;8.074;2023-07-30T05:49:46;1.73;;;1.50;;
10894;SDS011;5500;49.886;8.074;2023-07-30T05:52:14;1.87;;;1.70;;
10894;SDS011;5500;49.886;8.074;2023-07-30T05:54:42;2.83;;;1.50;;
10894;SDS011;5500;49.886;8.074;2023-07-30T05:57:09;1.93;;;1.50;;
10894;SDS011;5500;49.886;8.074;2023-07-30T05:59:39;1.70;;;1.60;;
10894;SDS011;5500;49.886;8.074;2023-07-30T06:02:06;2.60;;;1.70;;
10894;SDS011;5500;49.886;8.074;2023-07-30T06:04:34;3.33;;;1.60;;
10894;SDS011;5500;49.886;8.074;2023-07-30T06:07:02;3.13;;;1.67;;
10894;SDS011;5500;49.886;8.074;2023-07-30T06:09:30;1.53;;;1.43;;
10894;SDS011;5500;49.886;8.074;2023-07-30T06:11:58;1.73;;;1.63;;
10894;SDS011;5500;49.886;8.074;2023-07-30T06:14:26;2.57;;;1.67;;
10894;SDS011;5500;49.886;8.074;2023-07-30T06:16:55;2.50;;;1.67;;
10894;SDS011;5500;49.886;8.074;2023-07-30T06:19:23;3.20;;;1.93;;
10894;SDS011;5500;49.886;8.074;2023-07-30T06:21:51;2.97;;;1.90;;
10894;SDS011;5500;49.886;8.074;2023-07-30T06:24:18;1.67;;;1.57;;
10894;SDS011;5500;49.886;8.074;2023-07-30T06:26:46;2.20;;;1.70;;
10894;SDS011;5500;49.886;8.074;2023-07-30T06:29:13;4.20;;;1.80;;
10894;SDS011;5500;49.886;8.074;2023-07-30T06:31:41;1.70;;;1.60;;
10894;SDS011;5500;49.886;8.074;2023-07-30T06:34:10;1.87;;;1.50;;
10894;SDS011;5500;49.886;8.074;2023-07-30T06:36:38;1.77;;;1.67;;
10894;SDS011;5500;49.886;8.074;2023-07-30T06:39:05;1.63;;;1.40;;
10894;SDS011;5500;49.886;8.074;2023-07-30T06:41:33;1.67;;;1.57;;
10894;SDS011;5500;49.886;8.074;2023-07-30T06:44:02;2.00;;;1.70;;
10894;SDS011;5500;49.886;8.074;2023-07-30T06:46:29;2.67;;;1.60;;
10894;SDS011;5500;49.886;8.074;2023-07-30T06:48:57;2.73;;;2.00;;
10894;SDS011;5500;49.886;8.074;2023-07-30T06:51:26;6.90;;;2.10;;
10894;SDS011;5500;49.886;8.074;2023-07-30T06:53:54;3.63;;;2.40;;
10894;SDS011;5500;49.886;8.074;2023-07-30T06:56:22;4.87;;;2.10;;
10894;SDS011;5500;49.886;8.074;2023-07-30T06:58:49;2.30;;;2.10;;
10894;SDS011;5500;49.886;8.074;2023-07-30T07:01:17;2.40;;;2.00;;
10894;SDS011;5500;49.886;8.074;2023-07-30T07:03:45;2.17;;;1.97;;
10894;SDS011;5500;49.886;8.074;2023-07-30T07:06:12;2.63;;;2.17;;
10894;SDS011;5500;49.886;8.074;2023-07-30T07:08:41;2.90;;;2.23;;
10894;SDS011;5500;49.886;8.074;2023-07-30T07:11:09;2.20;;;2.00;;
10894;SDS011;5500;49.886;8.074;2023-07-30T07:13:37;2.70;;;2.27;;
10894;SDS011;5500;49.886;8.074;2023-07-30T07:16:04;2.07;;;1.97;;
10894;SDS011;5500;49.886;8.074;2023-07-30T07:18:32;2.50;;;2.30;;
10894;SDS011;5500;49.886;8.074;2023-07-30T07:21:00;2.47;;;2.27;;
10894;SDS011;5500;49.886;8.074;2023-07-30T07:23:28;3.10;;;2.20;;
10894;SDS011;5500;49.886;8.074;2023-07-30T07:25:57;2.97;;;2.60;;
10894;SDS011;5500;49.886;8.074;2023-07-30T07:28:24;3.17;;;2.40;;
10894;SDS011;5500;49.886;8.074;2023-07-30T07:30:52;3.13;;;2.37;;
10894;SDS011;5500;49.886;8.074;2023-07-30T07:33:22;3.73;;;2.20;;
10894;SDS011;5500;49.886;8.074;2023-07-30T07:35:49;3.50;;;2.60;;
10894;SDS011;5500;49.886;8.074;2023-07-30T07:38:17;2.87;;;2.53;;
10894;SDS011;5500;49.886;8.074;2023-07-30T07:40:45;2.90;;;2.70;;
10894;SDS011;5500;49.886;8.074;2023-07-30T07:43:13;4.30;;;2.93;;
10894;SDS011;5500;49.886;8.074;2023-07-30T07:45:41;3.17;;;2.87;;
10894;SDS011;5500;49.886;8.074;2023-07-30T07:48:09;3.70;;;2.80;;
10894;SDS011;5500;49.886;8.074;2023-07-30T07:50:36;3.57;;;3.27;;
10894;SDS011;5500;49.886;8.074;2023-07-30T07:53:04;3.83;;;3.47;;
10894;SDS011;5500;49.886;8.074;2023-07-30T07:55:32;4.13;;;3.80;;
10894;SDS011;5500;49.886;8.074;2023-07-30T07:57:59;3.50;;;3.20;;
10894;SDS011;5500;49.886;8.074;2023-07-30T08:00:28;3.93;;;3.30;;
10894;SDS011;5500;49.886;8.074;2023-07-30T08:02:56;3.53;;;3.23;;
10894;SDS011;5500;49.886;8.074;2023-07-30T08:05:24;3.60;;;3.30;;
10894;SDS011;5500;49.886;8.074;2023-07-30T08:07:52;3.50;;;2.93;;
10894;SDS011;5500;49.886;8.074;2023-07-30T08:10:19;3.20;;;3.00;;
10894;SDS011;5500;49.886;8.074;2023-07-30T08:12:47;3.27;;;2.97;;
10894;SDS011;5500;49.886;8.074;2023-07-30T08:15:15;3.47;;;2.90;;
10894;SDS011;5500;49.886;8.074;2023-07-30T08:17:44;2.77;;;2.50;;
10894;SDS011;5500;49.886;8.074;2023-07-30T08:20:13;3.40;;;2.60;;
10894;SDS011;5500;49.886;8.074;2023-07-30T08:22:40;3.80;;;2.33;;
10894;SDS011;5500;49.886;8.074;2023-07-30T08:25:08;2.43;;;2.23;;
10894;SDS011;5500;49.886;8.074;2023-07-30T08:27:36;2.43;;;2.23;;
10894;SDS011;5500;49.886;8.074;2023-07-30T08:30:04;3.10;;;2.20;;
10894;SDS011;5500;49.886;8.074;2023-07-30T08:32:33;4.20;;;2.30;;
10894;SDS011;5500;49.886;8.074;2023-07-30T08:35:06;3.03;;;2.73;;
10894;SDS011;5500;49.886;8.074;2023-07-30T08:37:35;2.73;;;2.50;;
10894;SDS011;5500;49.886;8.074;2023-07-30T08:40:03;3.97;;;2.37;;
10894;SDS011;5500;49.886;8.074;2023-07-30T08:42:31;3.30;;;2.40;;
10894;SDS011;5500;49.886;8.074;2023-07-30T08:44:59;5.57;;;2.87;;
10894;SDS011;5500;49.886;8.074;2023-07-30T08:47:27;8.73;;;2.70;;
10894;SDS011;5500;49.886;8.074;2023-07-30T08:49:54;9.83;;;2.63;;
10894;SDS011;5500;49.886;8.074;2023-07-30T08:52:25;4.43;;;1.43;;
10894;SDS011;5500;49.886;8.074;2023-07-30T08:54:53;2.43;;;1.40;;
10894;SDS011;5500;49.886;8.074;2023-07-30T08:57:22;1.37;;;1.07;;
10894;SDS011;5500;49.886;8.074;2023-07-30T08:59:50;2.40;;;1.00;;
10894;SDS011;5500;49.886;8.074;2023-07-30T09:02:23;2.13;;;0.90;;
10894;SDS011;5500;49.886;8.074;2023-07-30T09:04:54;1.43;;;1.10;;
10894;SDS011;5500;49.886;8.074;2023-07-30T09:07:25;1.07;;;0.80;;
10894;SDS011;5500;49.886;8.074;2023-07-30T09:09:53;0.60;;;0.60;;
10894;SDS011;5500;49.886;8.074;2023-07-30T09:12:25;0.50;;;0.50;;
10894;SDS011;5500;49.886;8.074;2023-07-30T09:14:53;0.60;;;0.60;;
10894;SDS011;5500;49.886;8.074;2023-07-30T09:17:21;0.60;;;0.60;;
10894;SDS011;5500;49.886;8.074;2023-07-30T09:19:48;0.60;;;0.40;;
10894;SDS011;5500;49.886;8.074;2023-07-30T09:22:19;0.50;;;0.50;;
10894;SDS011;5500;49.886;8.074;2023-07-30T09:24:49;0.83;;;0.60;;
10894;SDS011;5500;49.886;8.074;2023-07-30T09:27:19;0.40;;;0.40;;
10894;SDS011;5500;49.886;8.074;2023-07-30T09:29:50;0.30;;;0.30;;
10894;SDS011;5500;49.886;8.074;2023-07-30T09:32:19;0.60;;;0.60;;
10894;SDS011;5500;49.886;8.074;2023-07-30T09:34:46;1.13;;;0.70;;
10894;SDS011;5500;49.886;8.074;2023-07-30T09:37:14;0.53;;;0.53;;
10894;SDS011;5500;49.886;8.074;2023-07-30T09:39:42;0.90;;;0.70;;
10894;SDS011;5500;49.886;8.074;2023-07-30T09:42:12;1.07;;;0.83;;
10894;SDS011;5500;49.886;8.074;2023-07-30T09:44:40;1.90;;;0.90;;
10894;SDS011;5500;49.886;8.074;2023-07-30T09:47:09;0.93;;;0.70;;
10894;SDS011;5500;49.886;8.074;2023-07-30T09:49:37;2.53;;;0.80;;
10894;SDS011;5500;49.886;8.074;2023-07-30T09:52:05;2.60;;;1.00;;
10894;SDS011;5500;49.886;8.074;2023-07-30T09:54:33;1.03;;;0.93;;
10894;SDS011;5500;49.886;8.074;2023-07-30T09:57:01;4.30;;;1.07;;
10894;SDS011;5500;49.886;8.074;2023-07-30T09:59:32;1.80;;;1.10;;
10894;SDS011;5500;49.886;8.074;2023-07-30T10:01:59;2.33;;;1.40;;
10894;SDS011;5500;49.886;8.074;2023-07-30T10:04:28;2.73;;;1.10;;
10894;SDS011;5500;49.886;8.074;2023-07-30T10:06:56;2.47;;;1.43;;
10894;SDS011;5500;49.886;8.074;2023-07-30T10:09:27;1.70;;;0.93;;
10894;SDS011;5500;49.886;8.074;2023-07-30T10:11:57;4.33;;;1.70;;
10894;SDS011;5500;49.886;8.074;2023-07-30T10:14:25;3.23;;;1.10;;
10894;SDS011;5500;49.886;8.074;2023-07-30T10:16:55;3.97;;;1.50;;
10894;SDS011;5500;49.886;8.074;2023-07-30T10:19:25;4.97;;;1.60;;
10894;SDS011;5500;49.886;8.074;2023-07-30T10:21:53;3.00;;;1.27;;
10894;SDS011;5500;49.886;8.074;2023-07-30T10:24:21;4.87;;;1.53;;
10894;SDS011;5500;49.886;8.074;2023-07-30T10:26:49;2.73;;;1.33;;
10894;SDS011;5500;49.886;8.074;2023-07-30T10:29:17;2.37;;;1.30;;
10894;SDS011;5500;49.886;8.074;2023-07-30T10:31:48;3.63;;;1.53;;
10894;SDS011;5500;49.886;8.074;2023-07-30T10:34:20;3.17;;;1.47;;
10894;SDS011;5500;49.886;8.074;2023-07-30T10:36:49;3.30;;;1.30;;
10894;SDS011;5500;49.886;8.074;2023-07-30T10:39:18;3.73;;;1.70;;
10894;SDS011;5500;49.886;8.074;2023-07-30T10:41:48;2.60;;;1.70;;
10894;SDS011;5500;49.886;8.074;2023-07-30T10:44:17;3.10;;;1.23;;
10894;SDS011;5500;49.886;8.074;2023-07-30T10:46:46;3.10;;;1.37;;
10894;SDS011;5500;49.886;8.074;2023-07-30T10:49:14;6.20;;;1.50;;
10894;SDS011;5500;49.886;8.074;2023-07-30T10:51:43;3.57;;;1.53;;
10894;SDS011;5500;49.886;8.074;2023-07-30T10:54:11;6.03;;;2.20;;
10894;SDS011;5500;49.886;8.074;2023-07-30T10:56:38;6.70;;;1.37;;
10894;SDS011;5500;49.886;8.074;2023-07-30T10:59:07;3.67;;;1.97;;
10894;SDS011;5500;49.886;8.074;2023-07-30T11:01:39;4.20;;;1.37;;
10894;SDS011;5500;49.886;8.074;2023-07-30T11:04:08;7.27;;;1.70;;
10894;SDS011;5500;49.886;8.074;2023-07-30T11:06:37;5.27;;;1.63;;
10894;SDS011;5500;49.886;8.074;2023-07-30T11:09:17;1.80;;;1.27;;
10894;SDS011;5500;49.886;8.074;2023-07-30T11:11:45;2.57;;;1.40;;
10894;SDS011;5500;49.886;8.074;2023-07-30T11:14:16;2.80;;;1.30;;
10894;SDS011;5500;49.886;8.074;2023-07-30T11:16:47;1.30;;;1.20;;
10894;SDS011;5500;49.886;8.074;2023-07-30T11:19:16;2.43;;;1.43;;
10894;SDS011;5500;49.886;8.074;2023-07-30T11:21:44;3.70;;;1.57;;
10894;SDS011;5500;49.886;8.074;2023-07-30T11:24:14;4.37;;;1.23;;
10894;SDS011;5500;49.886;8.074;2023-07-30T11:26:42;5.50;;;1.70;;
10894;SDS011;5500;49.886;8.074;2023-07-30T11:29:13;4.40;;;1.30;;
10894;SDS011;5500;49.886;8.074;2023-07-30T11:31:42;2.87;;;1.40;;
10894;SDS011;5500;49.886;8.074;2023-07-30T11:34:11;4.53;;;1.40;;
10894;SDS011;5500;49.886;8.074;2023-07-30T11:36:39;4.73;;;1.53;;
10894;SDS011;5500;49.886;8.074;2023-07-30T11:39:07;7.37;;;1.47;;
10894;SDS011;5500;49.886;8.074;2023-07-30T11:41:37;3.27;;;1.50;;
10894;SDS011;5500;49.886;8.074;2023-07-30T11:44:06;7.10;;;1.80;;
10894;SDS011;5500;49.886;8.074;2023-07-30T11:46:33;3.93;;;1.60;;
10894;SDS011;5500;49.886;8.074;2023-07-30T11:49:12;5.23;;;1.80;;
10894;SDS011;5500;49.886;8.074;2023-07-30T11:51:43;1.77;;;1.37;;
10894;SDS011;5500;49.886;8.074;2023-07-30T11:54:18;3.47;;;1.50;;
10894;SDS011;5500;49.886;8.074;2023-07-30T11:56:53;2.57;;;1.43;;
10894;SDS011;5500;49.886;8.074;2023-07-30T11:59:21;3.60;;;1.50;;
10894;SDS011;5500;49.886;8.074;2023-07-30T12:01:49;2.63;;;1.20;;
10894;SDS011;5500;49.886;8.074;2023-07-30T12:04:17;2.73;;;1.33;;
10894;SDS011;5500;49.886;8.074;2023-07-30T12:06:45;2.27;;;1.33;;
10894;SDS011;5500;49.886;8.074;2023-07-30T12:09:14;5.60;;;1.47;;
10894;SDS011;5500;49.886;8.074;2023-07-30T12:11:48;4.03;;;1.90;;
10894;SDS011;5500;49.886;8.074;2023-07-30T12:14:17;2.57;;;1.53;;
10894;SDS011;5500;49.886;8.074;2023-07-30T12:16:45;2.33;;;1.37;;
10894;SDS011;5500;49.886;8.074;2023-07-30T12:19:13;5.60;;;1.57;;
10894;SDS011;5500;49.886;8.074;2023-07-30T12:21:41;2.53;;;1.47;;
10894;SDS011;5500;49.886;8.074;2023-07-30T12:24:09;3.70;;;1.50;;
10894;SDS011;5500;49.886;8.074;2023-07-30T12:26:37;2.80;;;1.30;;
10894;SDS011;5500;49.886;8.074;2023-07-30T12:29:06;5.40;;;1.97;;
10894;SDS011;5500;49.886;8.074;2023-07-30T12:31:33;2.37;;;1.37;;
10894;SDS011;5500;49.886;8.074;2023-07-30T12:34:01;2.77;;;1.57;;
10894;SDS011;5500;49.886;8.074;2023-07-30T12:36:29;2.80;;;1.57;;
10894;SDS011;5500;49.886;8.074;2023-07-30T12:38:57;5.90;;;1.60;;
10894;SDS011;5500;49.886;8.074;2023-07-30T12:41:25;2.90;;;1.50;;
10894;SDS011;5500;49.886;8.074;2023-07-30T12:43:53;4.37;;;1.60;;
10894;SDS011;5500;49.886;8.074;2023-07-30T12:46:23;4.93;;;1.50;;
10894;SDS011;5500;49.886;8.074;2023-07-30T12:48:53;3.20;;;1.97;;
10894;SDS011;5500;49.886;8.074;2023-07-30T12:51:21;3.30;;;1.57;;
10894;SDS011;5500;49.886;8.074;2023-07-30T12:53:49;5.10;;;1.67;;
10894;SDS011;5500;49.886;8.074;2023-07-30T12:56:17;3.03;;;1.53;;
10894;SDS011;5500;49.886;8.074;2023-07-30T12:58:44;2.67;;;1.30;;
10894;SDS011;5500;49.886;8.074;2023-07-30T13:01:12;2.23;;;1.40;;
10894;SDS011;5500;49.886;8.074;2023-07-30T13:03:41;3.43;;;1.60;;
10894;SDS011;5500;49.886;8.074;2023-07-30T13:06:11;2.97;;;1.57;;
10894;SDS011;5500;49.886;8.074;2023-07-30T13:08:39;2.53;;;1.60;;
10894;SDS011;5500;49.886;8.074;2023-07-30T13:11:07;8.97;;;1.50;;
10894;SDS011;5500;49.886;8.074;2023-07-30T13:13:35;4.93;;;1.80;;
10894;SDS011;5500;49.886;8.074;2023-07-30T13:16:03;4.03;;;1.70;;
10894;SDS011;5500;49.886;8.074;2023-07-30T13:18:31;3.23;;;1.60;;
10894;SDS011;5500;49.886;8.074;2023-07-30T13:21:00;1.77;;;1.23;;
10894;SDS011;5500;49.886;8.074;2023-07-30T13:23:27;2.93;;;1.40;;
10894;SDS011;5500;49.886;8.074;2023-07-30T13:25:56;3.00;;;1.67;;
10894;SDS011;5500;49.886;8.074;2023-07-30T13:28:24;5.20;;;2.23;;
10894;SDS011;5500;49.886;8.074;2023-07-30T13:30:52;6.27;;;1.67;;
10894;SDS011;5500;49.886;8.074;2023-07-30T13:33:20;4.47;;;1.47;;
10894;SDS011;5500;49.886;8.074;2023-07-30T13:35:47;3.20;;;1.33;;
10894;SDS011;5500;49.886;8.074;2023-07-30T13:38:17;5.17;;;1.63;;
10894;SDS011;5500;49.886;8.074;2023-07-30T13:40:47;3.90;;;1.27;;
10894;SDS011;5500;49.886;8.074;2023-07-30T13:43:15;2.23;;;1.37;;
10894;SDS011;5500;49.886;8.074;2023-07-30T13:45:43;7.07;;;1.63;;
10894;SDS011;5500;49.886;8.074;2023-07-30T13:48:10;4.33;;;1.50;;
10894;SDS011;5500;49.886;8.074;2023-07-30T13:50:38;2.83;;;1.50;;
10894;SDS011;5500;49.886;8.074;2023-07-30T13:53:06;4.10;;;1.70;;
10894;SDS011;5500;49.886;8.074;2023-07-30T13:55:35;3.93;;;1.73;;
10894;SDS011;5500;49.886;8.074;2023-07-30T13:58:09;4.30;;;1.90;;
10894;SDS011;5500;49.886;8.074;2023-07-30T14:00:37;3.83;;;1.50;;
10894;SDS011;5500;49.886;8.074;2023-07-30T14:03:06;2.53;;;1.17;;
10894;SDS011;5500;49.886;8.074;2023-07-30T14:05:36;3.83;;;1.80;;
10894;SDS011;5500;49.886;8.074;2023-07-30T14:08:04;3.17;;;1.53;;
10894;SDS011;5500;49.886;8.074;2023-07-30T14:10:31;5.93;;;1.90;;
10894;SDS011;5500;49.886;8.074;2023-07-30T14:13:01;2.77;;;1.57;;
10894;SDS011;5500;49.886;8.074;2023-07-30T14:15:28;3.10;;;1.43;;
10894;SDS011;5500;49.886;8.074;2023-07-30T14:17:56;2.67;;;1.57;;
10894;SDS011;5500;49.886;8.074;2023-07-30T14:20:24;3.73;;;1.40;;
10894;SDS011;5500;49.886;8.074;2023-07-30T14:22:52;2.20;;;1.27;;
10894;SDS011;5500;49.886;8.074;2023-07-30T14:25:20;6.07;;;1.53;;
10894;SDS011;5500;49.886;8.074;2023-07-30T14:27:48;3.20;;;1.40;;
10894;SDS011;5500;49.886;8.074;2023-07-30T14:30:17;3.47;;;1.50;;
10894;SDS011;5500;49.886;8.074;2023-07-30T14:32:45;4.07;;;1.67;;
10894;SDS011;5500;49.886;8.074;2023-07-30T14:35:13;8.13;;;1.90;;
10894;SDS011;5500;49.886;8.074;2023-07-30T14:37:40;3.07;;;1.43;;
10894;SDS011;5500;49.886;8.074;2023-07-30T14:40:08;4.03;;;1.83;;
10894;SDS011;5500;49.886;8.074;2023-07-30T14:42:36;2.50;;;1.60;;
10894;SDS011;5500;49.886;8.074;2023-07-30T14:45:06;3.37;;;1.50;;
10894;SDS011;5500;49.886;8.074;2023-07-30T14:47:36;5.07;;;2.10;;
10894;SDS011;5500;49.886;8.074;2023-07-30T14:50:06;5.37;;;1.77;;
10894;SDS011;5500;49.886;8.074;2023-07-30T14:52:34;2.80;;;1.63;;
10894;SDS011;5500;49.886;8.074;2023-07-30T14:55:02;5.07;;;1.33;;
10894;SDS011;5500;49.886;8.074;2023-07-30T14:57:30;3.20;;;1.40;;
10894;SDS011;5500;49.886;8.074;2023-07-30T14:59:59;3.23;;;1.67;;
10894;SDS011;5500;49.886;8.074;2023-07-30T15:02:27;4.07;;;1.50;;
10894;SDS011;5500;49.886;8.074;2023-07-30T15:04:56;4.33;;;1.50;;
10894;SDS011;5500;49.886;8.074;2023-07-30T15:07:24;4.33;;;1.60;;